createdAt,value
2023-02-16T00:01:38.059Z,102199.69
2023-02-16T00:04:24.738Z,102202.28
2023-02-16T00:06:55.545Z,102201.44
2023-02-16T00:09:27.432Z,102211.00
2023-02-16T00:12:15.942Z,102198.91
2023-02-16T00:14:43.519Z,102193.72
2023-02-16T00:17:12.673Z,102196.38
2023-02-16T00:19:43.547Z,102199.88
2023-02-16T00:22:14.409Z,102197.31
2023-02-16T00:24:47.170Z,102194.72
2023-02-16T00:27:20.319Z,102197.34
2023-02-16T00:29:48.857Z,102194.75
2023-02-16T00:32:18.628Z,102193.91
2023-02-16T00:34:57.869Z,102193.94
2023-02-16T00:37:27.924Z,102188.78
2023-02-16T00:39:57.865Z,102196.59
2023-02-16T00:42:37.195Z,102188.84
2023-02-16T00:45:17.807Z,102194.91
2023-02-16T00:47:56.430Z,102196.69
2023-02-16T00:50:35.905Z,102197.53
2023-02-16T00:53:04.018Z,102198.44
2023-02-16T00:55:37.031Z,102188.06
2023-02-16T00:58:34.200Z,102190.69
2023-02-16T01:01:13.423Z,102187.22
2023-02-16T01:03:45.760Z,102188.13
2023-02-16T01:06:33.496Z,102184.66
2023-02-16T01:09:37.210Z,102188.13
2023-02-16T01:12:19.692Z,102182.94
2023-02-16T01:15:01.635Z,102176.03
2023-02-16T01:17:33.882Z,102169.13
2023-02-16T01:20:04.936Z,102176.94
2023-02-16T01:22:35.657Z,102176.94
2023-02-16T01:25:09.219Z,102177.81
2023-02-16T01:27:41.582Z,102172.66
2023-02-16T01:30:25.572Z,102171.78
2023-02-16T01:32:59.133Z,102167.47
2023-02-16T01:35:37.418Z,102182.22
2023-02-16T01:38:05.329Z,102176.19
2023-02-16T01:40:43.677Z,102169.25
2023-02-16T01:43:31.472Z,102162.34
2023-02-16T01:46:37.037Z,102165.84
2023-02-16T01:49:19.521Z,102159.78
2023-02-16T01:52:12.108Z,102154.63
2023-02-16T01:55:43.966Z,102142.53
2023-02-16T01:58:46.786Z,102131.25
2023-02-16T02:02:33.742Z,102129.56
2023-02-16T02:05:35.261Z,102137.38
2023-02-16T02:08:12.121Z,102143.47
2023-02-16T02:11:30.253Z,102140.91
2023-02-16T02:14:11.665Z,102142.69
2023-02-16T02:16:40.606Z,102140.97
2023-02-16T02:19:12.552Z,102134.94
2023-02-16T02:23:04.214Z,102136.66
2023-02-16T02:26:38.133Z,102130.66
2023-02-16T02:29:50.452Z,102126.31
2023-02-16T02:32:35.994Z,102133.25
2023-02-16T02:35:16.697Z,102138.44
2023-02-16T02:38:35.125Z,102129.81
2023-02-16T02:42:05.958Z,102124.63
2023-02-16T02:45:19.068Z,102114.22
2023-02-16T02:47:49.309Z,102124.59
2023-02-16T02:51:06.851Z,102112.50
2023-02-16T02:54:12.497Z,102116.78
2023-02-16T02:57:35.805Z,102097.72
2023-02-16T03:00:44.369Z,102090.84
2023-02-16T03:03:34.863Z,102091.72
2023-02-16T03:06:22.747Z,102096.91
2023-02-16T03:09:11.587Z,102095.19
2023-02-16T03:12:01.531Z,102094.38
2023-02-16T03:14:54.344Z,102096.97
2023-02-16T03:18:00.394Z,102095.25
2023-02-16T03:20:50.511Z,102093.56
2023-02-16T03:23:36.728Z,102093.59
2023-02-16T03:26:23.780Z,102090.16
2023-02-16T03:29:13.918Z,102090.19
2023-02-16T03:31:45.068Z,102084.19
2023-02-16T03:34:14.652Z,102085.97
2023-02-16T03:36:49.153Z,102073.84
2023-02-16T03:39:20.195Z,102072.16
2023-02-16T03:41:57.372Z,102079.09
2023-02-16T03:44:27.609Z,102072.19
2023-02-16T03:46:58.612Z,102077.41
2023-02-16T03:49:26.551Z,102071.38
2023-02-16T03:51:55.248Z,102082.63
2023-02-16T03:54:30.009Z,102077.47
2023-02-16T03:56:57.465Z,102073.13
2023-02-16T03:59:25.126Z,102060.19
2023-02-16T04:01:59.466Z,102065.31
2023-02-16T04:04:31.504Z,102070.50
2023-02-16T04:07:02.295Z,102073.13
2023-02-16T04:09:31.512Z,102077.47
2023-02-16T04:12:19.508Z,102076.56
2023-02-16T04:14:49.601Z,102089.53
2023-02-16T04:20:07.572Z,102090.41
2023-02-16T04:22:36.810Z,102086.09
2023-02-16T04:25:05.466Z,102081.75
2023-02-16T04:27:34.218Z,102086.06
2023-02-16T04:30:24.318Z,102081.75
2023-02-16T04:32:57.644Z,102083.47
2023-02-16T04:35:25.444Z,102093.00
2023-02-16T04:37:52.926Z,102084.34
2023-02-16T04:40:25.736Z,102093.03
2023-02-16T04:42:56.097Z,102075.75
2023-02-16T04:45:23.975Z,102086.09
2023-02-16T04:47:55.481Z,102091.28
2023-02-16T04:50:26.763Z,102093.88
2023-02-16T04:53:00.921Z,102109.41
2023-02-16T04:55:31.624Z,102098.19
2023-02-16T04:58:09.029Z,102080.03
2023-02-16T05:00:38.650Z,102081.72
2023-02-16T05:03:09.347Z,102072.25
2023-02-16T05:05:44.515Z,102090.34
2023-02-16T05:08:14.008Z,102077.34
2023-02-16T05:11:11.956Z,102073.91
2023-02-16T05:14:11.290Z,102066.97
2023-02-16T05:16:53.541Z,102078.19
2023-02-16T05:19:23.274Z,102080.78
2023-02-16T05:21:51.406Z,102079.88
2023-02-16T05:24:19.074Z,102071.22
2023-02-16T05:26:48.048Z,102068.63
2023-02-16T05:29:19.163Z,102072.06
2023-02-16T05:31:46.752Z,102081.56
2023-02-16T05:34:17.746Z,102081.56
2023-02-16T05:36:47.476Z,102067.72
2023-02-16T05:39:21.566Z,102070.31
2023-02-16T05:41:52.720Z,102078.13
2023-02-16T05:44:25.399Z,102080.69
2023-02-16T05:46:53.167Z,102085.88
2023-02-16T05:49:21.090Z,102076.34
2023-02-16T05:51:51.477Z,102081.50
2023-02-16T05:54:19.491Z,102069.38
2023-02-16T05:56:53.139Z,102068.50
2023-02-16T05:59:22.064Z,102069.34
2023-02-16T06:01:55.128Z,102057.25
2023-02-16T06:04:25.557Z,102062.44
2023-02-16T06:07:07.668Z,102049.44
2023-02-16T06:09:55.688Z,102044.25
2023-02-16T06:12:27.184Z,102048.53
2023-02-16T06:15:03.671Z,102052.00
2023-02-16T06:17:34.203Z,102057.22
2023-02-16T06:20:04.441Z,102056.31
2023-02-16T06:22:57.970Z,102075.38
2023-02-16T06:25:36.691Z,102073.66
2023-02-16T06:28:07.194Z,102061.56
2023-02-16T06:30:38.931Z,102060.66
2023-02-16T06:33:07.961Z,102064.97
2023-02-16T06:38:23.870Z,102057.19
2023-02-16T06:40:55.543Z,102070.13
2023-02-16T06:43:22.870Z,102077.91
2023-02-16T06:45:55.893Z,102083.97
2023-02-16T06:48:27.466Z,102096.06
2023-02-16T06:51:03.207Z,102089.97
2023-02-16T06:53:32.976Z,102086.53
2023-02-16T06:56:01.668Z,102079.63
2023-02-16T06:58:33.028Z,102074.38
2023-02-16T07:01:11.782Z,102082.16
2023-02-16T07:03:40.899Z,102083.88
2023-02-16T07:06:08.550Z,102086.47
2023-02-16T07:08:36.379Z,102089.91
2023-02-16T07:11:06.712Z,102087.31
2023-02-16T07:13:37.051Z,102093.38
2023-02-16T07:16:14.113Z,102093.38
2023-02-16T07:18:43.357Z,102095.94
2023-02-16T07:21:19.739Z,102096.72
2023-02-16T07:23:48.935Z,102103.66
2023-02-16T07:29:28.798Z,102091.47
2023-02-16T07:31:59.038Z,102082.78
2023-02-16T07:34:30.595Z,102089.66
2023-02-16T07:37:01.904Z,102093.09
2023-02-16T07:39:31.179Z,102096.53
2023-02-16T07:41:58.712Z,102078.31
2023-02-16T07:44:27.183Z,102084.31
2023-02-16T07:46:55.378Z,102087.72
2023-02-16T07:49:25.464Z,102083.28
2023-02-16T07:52:06.199Z,102096.28
2023-02-16T07:54:34.502Z,102097.09
2023-02-16T07:57:08.290Z,102106.56
2023-02-16T07:59:39.215Z,102109.97
2023-02-16T08:02:08.756Z,102112.56
2023-02-16T08:04:38.729Z,102115.97
2023-02-16T08:07:08.327Z,102107.25
2023-02-16T08:09:37.180Z,102105.44
2023-02-16T08:12:09.523Z,102103.69
2023-02-16T08:14:41.005Z,102104.44
2023-02-16T08:17:09.793Z,102101.78
2023-02-16T08:19:37.555Z,102106.09
2023-02-16T08:22:07.926Z,102106.94
2023-02-16T08:24:37.913Z,102121.59
2023-02-16T08:27:10.639Z,102123.25
2023-02-16T08:29:42.583Z,102131.00
2023-02-16T08:32:16.052Z,102125.69
2023-02-16T08:34:44.333Z,102134.31
2023-02-16T08:37:17.216Z,102132.53
2023-02-16T08:39:44.829Z,102129.88
2023-02-16T08:42:16.425Z,102129.84
2023-02-16T08:44:45.473Z,102128.91
2023-02-16T08:47:16.887Z,102129.72
2023-02-16T08:49:45.338Z,102136.63
2023-02-16T08:52:14.480Z,102134.84
2023-02-16T08:54:44.631Z,102134.78
2023-02-16T08:57:14.952Z,102139.97
2023-02-16T08:59:45.058Z,102141.66
2023-02-16T09:02:19.661Z,102138.13
2023-02-16T09:04:52.310Z,102139.00
2023-02-16T09:07:22.915Z,102145.81
2023-02-16T09:09:56.256Z,102151.91
2023-02-16T09:12:30.435Z,102149.25
2023-02-16T09:14:59.227Z,102149.25
2023-02-16T09:17:29.080Z,102158.69
2023-02-16T09:19:56.558Z,102152.56
2023-02-16T09:22:24.181Z,102155.09
2023-02-16T09:24:52.342Z,102158.50
2023-02-16T09:27:26.512Z,102152.41
2023-02-16T09:29:55.847Z,102149.75
2023-02-16T09:32:29.089Z,102153.13
2023-02-16T09:35:05.102Z,102156.53
2023-02-16T09:37:34.963Z,102151.28
2023-02-16T09:40:08.653Z,102153.00
2023-02-16T09:43:41.659Z,102148.63
2023-02-16T09:46:18.404Z,102152.06
2023-02-16T09:48:52.507Z,102143.38
2023-02-16T09:51:44.656Z,102147.00
2023-02-16T09:55:00.119Z,102140.22
2023-02-16T09:58:16.421Z,102136.88
2023-02-16T10:01:02.119Z,102140.44
2023-02-16T10:04:15.858Z,102136.19
2023-02-16T10:07:22.062Z,102131.06
2023-02-16T10:10:08.607Z,102126.81
2023-02-16T10:12:59.012Z,102130.31
2023-02-16T10:21:34.927Z,102152.09
2023-02-16T10:27:29.596Z,102149.53
2023-02-16T10:33:24.357Z,102151.19
2023-02-16T10:36:12.095Z,102143.38
2023-02-16T10:47:49.980Z,102153.56
2023-02-16T10:51:24.313Z,102145.75
2023-02-16T10:54:32.913Z,102149.25
2023-02-16T11:00:52.766Z,102149.31
2023-02-16T11:03:43.897Z,102140.66
2023-02-16T11:06:45.370Z,102143.34
2023-02-16T11:13:08.765Z,102149.50
2023-02-16T11:15:45.478Z,102155.63
2023-02-16T11:19:11.995Z,102160.88
2023-02-16T11:22:15.127Z,102147.91
2023-02-16T11:25:02.884Z,102140.97
2023-02-16T11:27:51.073Z,102140.09
2023-02-16T11:30:46.325Z,102129.69
2023-02-16T11:33:36.786Z,102123.59
2023-02-16T11:36:53.559Z,102119.13
2023-02-16T11:39:41.698Z,102130.31
2023-02-16T11:42:49.168Z,102120.75
2023-02-16T11:45:38.939Z,102116.41
2023-02-16T11:54:27.830Z,102108.25
2023-02-16T11:57:43.920Z,102104.63
2023-02-16T12:00:31.113Z,102089.75
2023-02-16T12:03:53.448Z,102096.47
2023-02-16T12:07:21.956Z,102089.41
2023-02-16T12:10:39.801Z,102077.09
2023-02-16T12:17:40.383Z,102083.56
2023-02-16T12:20:55.855Z,102085.13
2023-02-16T12:24:07.360Z,102072.78
2023-02-16T12:31:00.753Z,102059.91
2023-02-16T12:38:10.798Z,102061.34
2023-02-16T12:41:06.666Z,102052.28
2023-02-16T12:44:07.646Z,102042.44
2023-02-16T12:46:58.789Z,102052.69
2023-02-16T12:50:01.874Z,102040.06
2023-02-16T12:53:08.580Z,102035.91
2023-02-16T12:56:12.744Z,102020.63
2023-02-16T12:59:00.647Z,102012.34
2023-02-16T13:02:18.302Z,102019.81
2023-02-16T13:05:36.356Z,102011.09
2023-02-16T13:09:46.319Z,101996.31
2023-02-16T13:16:43.141Z,101996.97
2023-02-16T13:19:30.479Z,101992.75
2023-02-16T13:22:55.749Z,101971.13
2023-02-16T13:26:32.917Z,101981.22
2023-02-16T13:29:49.874Z,101975.66
2023-02-16T13:33:17.558Z,101965.16
2023-02-16T13:36:41.062Z,101962.66
2023-02-16T13:40:06.537Z,101960.78
2023-02-16T13:43:21.464Z,101950.31
2023-02-16T13:45:54.574Z,101946.19
2023-02-16T13:48:40.429Z,101963.78
2023-02-16T13:51:27.796Z,101955.19
2023-02-16T13:54:06.940Z,101937.78
2023-02-16T13:56:59.080Z,101941.56
2023-02-16T13:59:26.661Z,101942.69
2023-02-16T14:02:05.401Z,101939.50
2023-02-16T14:05:10.804Z,101931.00
2023-02-16T14:07:40.014Z,101921.31
2023-02-16T14:10:20.464Z,101913.63
2023-02-16T14:12:50.105Z,101926.63
2023-02-16T14:15:21.218Z,101909.81
2023-02-16T14:17:53.321Z,101908.78
2023-02-16T14:20:42.911Z,101901.81
2023-02-16T14:23:37.799Z,101895.31
2023-02-16T14:26:17.505Z,101910.13
2023-02-16T14:29:18.645Z,101902.81
2023-02-16T14:32:38.632Z,101902.44
2023-02-16T14:35:40.064Z,101894.22
2023-02-16T14:38:50.973Z,101897.03
2023-02-16T14:41:45.733Z,101896.44
2023-02-16T14:44:54.487Z,101891.56
2023-02-16T14:51:39.931Z,101896.41
2023-02-16T14:55:02.449Z,101884.69
2023-02-16T14:58:51.157Z,101880.63
2023-02-16T15:01:22.209Z,101879.88
2023-02-16T15:03:57.104Z,101880.81
2023-02-16T15:07:06.036Z,101881.34
2023-02-16T15:09:38.841Z,101874.13
2023-02-16T15:12:22.330Z,101878.28
2023-02-16T15:15:18.726Z,101872.84
2023-02-16T15:17:50.382Z,101870.19
2023-02-16T15:20:41.475Z,101871.34
2023-02-16T15:23:28.847Z,101864.00
2023-02-16T15:26:29.863Z,101864.56
2023-02-16T15:29:27.253Z,101870.22
2023-02-16T15:32:00.614Z,101868.28
2023-02-16T15:34:36.854Z,101868.56
2023-02-16T15:40:38.058Z,101872.53
2023-02-16T15:43:37.082Z,101849.94
2023-02-16T15:46:34.524Z,101861.38
2023-02-16T15:49:36.168Z,101866.81
2023-02-16T15:52:40.254Z,101862.66
2023-02-16T15:55:13.730Z,101861.06
2023-02-16T15:57:41.764Z,101869.06
2023-02-16T16:00:23.490Z,101858.69
2023-02-16T16:03:05.390Z,101853.63
2023-02-16T16:05:39.503Z,101846.69
2023-02-16T16:08:19.632Z,101852.84
2023-02-16T16:10:48.967Z,101858.16
2023-02-16T16:13:35.506Z,101850.53
2023-02-16T16:16:08.432Z,101850.47
2023-02-16T16:18:54.110Z,101848.88
2023-02-16T16:21:34.379Z,101849.94
2023-02-16T16:24:11.706Z,101850.91
2023-02-16T16:26:58.440Z,101849.19
2023-02-16T16:29:48.447Z,101862.41
2023-02-16T16:32:29.068Z,101855.72
2023-02-16T16:34:58.803Z,101862.41
2023-02-16T16:37:37.430Z,101858.53
2023-02-16T16:40:23.127Z,101858.25
2023-02-16T16:43:18.740Z,101867.63
2023-02-16T16:46:20.435Z,101861.06
2023-02-16T16:48:55.317Z,101862.50
2023-02-16T16:51:53.809Z,101863.88
2023-02-16T16:54:39.633Z,101866.91
2023-02-16T16:57:21.074Z,101877.69
2023-02-16T16:59:54.668Z,101863.25
2023-02-16T17:02:25.554Z,101859.19
2023-02-16T17:05:03.893Z,101871.50
2023-02-16T17:13:51.164Z,101859.94
2023-02-16T17:16:43.747Z,101860.13
2023-02-16T17:19:42.310Z,101859.25
2023-02-16T17:29:40.042Z,101848.47
2023-02-16T17:35:04.872Z,101846.94
2023-02-16T17:37:52.009Z,101857.50
2023-02-16T17:40:31.065Z,101854.09
2023-02-16T17:46:16.190Z,101847.28
2023-02-16T17:51:52.859Z,101849.13
2023-02-16T17:54:52.579Z,101851.75
2023-02-16T17:57:30.931Z,101844.88
2023-02-16T18:00:23.731Z,101830.94
2023-02-16T18:11:15.082Z,101826.69
2023-02-16T18:14:31.138Z,101836.34
2023-02-16T18:17:05.032Z,101836.28
2023-02-16T18:19:40.688Z,101843.25
2023-02-16T18:22:43.421Z,101844.09
2023-02-16T18:25:45.752Z,101844.94
2023-02-16T18:28:32.371Z,101824.03
2023-02-16T18:34:06.892Z,101819.63
2023-02-16T18:45:22.034Z,101823.47
2023-02-16T18:47:52.813Z,101814.78
2023-02-16T18:50:34.767Z,101808.66
2023-02-16T18:53:46.701Z,101813.06
2023-02-16T18:56:56.071Z,101810.50
2023-02-16T18:59:34.398Z,101801.84
2023-02-16T19:04:58.217Z,101813.25
2023-02-16T19:07:29.705Z,101815.91
2023-02-16T19:10:10.788Z,101812.50
2023-02-16T19:12:51.132Z,101802.84
2023-02-16T19:15:19.157Z,101818.53
2023-02-16T19:17:53.046Z,101816.75
2023-02-16T19:20:32.484Z,101817.63
2023-02-16T19:23:27.464Z,101813.25
2023-02-16T19:25:59.212Z,101811.56
2023-02-16T19:28:47.227Z,101816.81
2023-02-16T19:31:44.781Z,101827.25
2023-02-16T19:34:21.974Z,101818.56
2023-02-16T19:46:16.067Z,101831.03
2023-02-16T19:49:07.751Z,101826.69
2023-02-16T19:51:53.837Z,101827.66
2023-02-16T19:54:47.541Z,101819.81
2023-02-16T20:00:42.089Z,101815.53
2023-02-16T20:06:55.557Z,101817.44
2023-02-16T20:09:40.242Z,101819.16
2023-02-16T20:12:12.841Z,101813.16
2023-02-16T20:15:16.233Z,101821.81
2023-02-16T20:18:42.450Z,101816.59
2023-02-16T20:24:30.507Z,101819.31
2023-02-16T20:29:51.876Z,101812.34
2023-02-16T20:35:31.687Z,101817.47
2023-02-16T20:41:10.286Z,101787.03
2023-02-16T20:44:07.197Z,101799.19
2023-02-16T20:46:41.696Z,101805.22
2023-02-16T20:49:19.873Z,101799.16
2023-02-16T20:51:55.729Z,101787.78
2023-02-16T20:54:37.200Z,101780.91
2023-02-16T21:04:27.848Z,101785.16
2023-02-16T21:07:08.300Z,101786.03
2023-02-16T21:10:37.039Z,101779.84
2023-02-16T21:13:34.233Z,101786.78
2023-02-16T21:19:45.578Z,101786.69
2023-02-16T21:22:28.661Z,101800.56
2023-02-16T21:25:13.910Z,101792.66
2023-02-16T21:33:56.692Z,101800.47
2023-02-16T21:39:17.721Z,101793.34
2023-02-16T21:41:52.269Z,101784.63
2023-02-16T21:45:10.903Z,101785.50
2023-02-16T21:48:08.121Z,101787.22
2023-02-16T21:53:56.577Z,101784.34
2023-02-16T22:00:09.720Z,101776.47
2023-02-16T22:02:43.370Z,101779.06
2023-02-16T22:09:11.930Z,101767.69
2023-02-16T22:12:02.038Z,101762.41
2023-02-16T22:14:45.816Z,101757.97
2023-02-16T22:17:24.620Z,101760.59
2023-02-16T22:20:06.132Z,101753.72
2023-02-16T22:23:04.549Z,101761.41
2023-02-16T22:25:34.136Z,101760.47
2023-02-16T22:28:19.725Z,101756.13
2023-02-16T22:30:51.717Z,101753.56
2023-02-16T22:33:25.056Z,101750.81
2023-02-16T22:39:12.819Z,101759.50
2023-02-16T22:41:41.748Z,101756.81
2023-02-16T22:44:22.795Z,101752.44
2023-02-16T22:46:57.873Z,101766.28
2023-02-16T22:49:35.628Z,101762.91
2023-02-16T22:52:20.938Z,101773.25
2023-02-16T22:54:55.611Z,101773.22
2023-02-16T22:57:33.024Z,101762.69
2023-02-16T23:00:16.597Z,101772.31
2023-02-16T23:03:02.436Z,101769.66
2023-02-16T23:05:38.850Z,101767.03
2023-02-16T23:08:07.354Z,101762.66
2023-02-16T23:10:56.080Z,101767.97
2023-02-16T23:13:30.845Z,101775.72
2023-02-16T23:16:17.002Z,101783.50
2023-02-16T23:18:51.545Z,101785.22
2023-02-16T23:21:34.390Z,101781.78
2023-02-16T23:24:27.738Z,101781.72
2023-02-16T23:27:08.171Z,101775.56
2023-02-16T23:29:37.916Z,101766.88
2023-02-16T23:32:21.692Z,101771.22
2023-02-16T23:37:58.307Z,101758.19
2023-02-16T23:40:29.249Z,101751.13
2023-02-16T23:42:57.026Z,101754.69
2023-02-16T23:45:32.486Z,101758.13
2023-02-16T23:50:54.827Z,101745.13
2023-02-16T23:53:28.868Z,101751.13
2023-02-16T23:56:25.487Z,101759.81
2023-02-16T23:59:03.012Z,101756.41
